CheckWX is a tool to help pilots better visualize weather data.  It is not intended as a substitute for an official pre-flight weather briefing.

18:40:20 UTC

EGVO METAR
RAF Odiham Airport
Odiham, United Kingdom
Current

20 mins ago

EGVO 281820Z 07010KT CAVOK 19/03 Q1030 NOSIG RMK BLU BLU
Observed
May-28 @ 18:20 UTC
Wind
  • 070° at 10 KTS
Visibility
10,000+ meters
Flight Rules
VFR
Cloud Levels
  • Clear skies
Temperature
19°C / 66°F
Dewpoint
C / 37°F
Humidity
35%
Altimeter
30.41" Hg
Pressure
1029.92 hPa
Previous

50 mins ago

EGVO 281750Z 06010KT CAVOK 20/04 Q1030 NOSIG RMK BLU BLU
Observed
May-28 @ 17:50 UTC
Wind
  • 060° at 10 KTS
Visibility
10,000+ meters
Flight Rules
VFR
Cloud Levels
  • Clear skies
Temperature
20°C / 68°F
Dewpoint
C / 39°F
Humidity
35%
Altimeter
30.41" Hg
Pressure
1029.92 hPa
Previous

1 hour ago

EGVO 281720Z 06010G23KT CAVOK 20/04 Q1030 NOSIG RMK BLU BLU
Observed
May-28 @ 17:20 UTC
Wind
  • 060° at 10 KTS
  • Gusting to 23 KTS
Visibility
10,000+ meters
Flight Rules
VFR
Cloud Levels
  • Clear skies
Temperature
20°C / 68°F
Dewpoint
C / 39°F
Humidity
35%
Altimeter
30.41" Hg
Pressure
1029.92 hPa